sensor_id;sensor_type;location;lat;lon;timestamp;temperature;humidity
19058;DHT22;9662;53.612;9.914;2022-12-20T00:01:49;5.50;99.90
19058;DHT22;9662;53.612;9.914;2022-12-20T00:04:16;5.60;99.90
19058;DHT22;9662;53.612;9.914;2022-12-20T00:06:43;5.90;99.90
19058;DHT22;9662;53.612;9.914;2022-12-20T00:09:10;5.70;99.90
19058;DHT22;9662;53.612;9.914;2022-12-20T00:11:38;6.00;99.90
19058;DHT22;9662;53.612;9.914;2022-12-20T00:14:05;6.00;99.90
19058;DHT22;9662;53.612;9.914;2022-12-20T00:16:35;5.80;99.90
19058;DHT22;9662;53.612;9.914;2022-12-20T00:19:04;5.80;99.90
19058;DHT22;9662;53.612;9.914;2022-12-20T00:21:32;6.10;99.90
19058;DHT22;9662;53.612;9.914;2022-12-20T00:23:59;6.30;99.90
19058;DHT22;9662;53.612;9.914;2022-12-20T00:26:28;6.30;99.90
19058;DHT22;9662;53.612;9.914;2022-12-20T00:28:56;6.10;99.90
19058;DHT22;9662;53.612;9.914;2022-12-20T00:31:24;6.00;99.90
19058;DHT22;9662;53.612;9.914;2022-12-20T00:33:54;6.20;99.90
19058;DHT22;9662;53.612;9.914;2022-12-20T00:36:22;6.20;99.90
19058;DHT22;9662;53.612;9.914;2022-12-20T00:38:51;5.90;99.90
19058;DHT22;9662;53.612;9.914;2022-12-20T00:41:20;6.10;99.90
19058;DHT22;9662;53.612;9.914;2022-12-20T00:43:47;6.10;99.90
19058;DHT22;9662;53.612;9.914;2022-12-20T00:46:15;6.10;99.90
19058;DHT22;9662;53.612;9.914;2022-12-20T00:48:42;6.20;99.90
19058;DHT22;9662;53.612;9.914;2022-12-20T00:51:12;6.30;99.90
19058;DHT22;9662;53.612;9.914;2022-12-20T00:53:40;6.20;99.90
19058;DHT22;9662;53.612;9.914;2022-12-20T00:56:07;6.50;99.90
19058;DHT22;9662;53.612;9.914;2022-12-20T00:58:36;6.20;99.90
19058;DHT22;9662;53.612;9.914;2022-12-20T01:01:04;6.10;99.90
19058;DHT22;9662;53.612;9.914;2022-12-20T01:03:31;6.00;99.90
19058;DHT22;9662;53.612;9.914;2022-12-20T01:05:59;6.00;99.90
19058;DHT22;9662;53.612;9.914;2022-12-20T01:08:29;6.20;99.90
19058;DHT22;9662;53.612;9.914;2022-12-20T01:11:00;5.90;99.90
19058;DHT22;9662;53.612;9.914;2022-12-20T01:13:27;6.10;99.90
19058;DHT22;9662;53.612;9.914;2022-12-20T01:15:54;6.00;99.90
19058;DHT22;9662;53.612;9.914;2022-12-20T01:18:21;5.90;99.90
19058;DHT22;9662;53.612;9.914;2022-12-20T01:20:48;5.80;99.90
19058;DHT22;9662;53.612;9.914;2022-12-20T01:23:15;5.90;99.90
19058;DHT22;9662;53.612;9.914;2022-12-20T01:25:43;5.80;99.90
19058;DHT22;9662;53.612;9.914;2022-12-20T01:28:10;6.10;99.90
19058;DHT22;9662;53.612;9.914;2022-12-20T01:30:39;6.10;99.90
19058;DHT22;9662;53.612;9.914;2022-12-20T01:33:06;6.30;99.90
19058;DHT22;9662;53.612;9.914;2022-12-20T01:35:32;6.60;99.90
19058;DHT22;9662;53.612;9.914;2022-12-20T01:37:59;6.50;99.90
19058;DHT22;9662;53.612;9.914;2022-12-20T01:40:26;6.50;99.90
19058;DHT22;9662;53.612;9.914;2022-12-20T01:42:54;6.30;99.90
19058;DHT22;9662;53.612;9.914;2022-12-20T01:45:25;6.60;99.90
19058;DHT22;9662;53.612;9.914;2022-12-20T01:47:53;6.70;99.90
19058;DHT22;9662;53.612;9.914;2022-12-20T01:50:21;6.50;99.90
19058;DHT22;9662;53.612;9.914;2022-12-20T01:52:48;6.60;99.90
19058;DHT22;9662;53.612;9.914;2022-12-20T01:55:19;6.60;99.90
19058;DHT22;9662;53.612;9.914;2022-12-20T01:57:51;7.00;99.90
19058;DHT22;9662;53.612;9.914;2022-12-20T02:00:21;6.70;99.90
19058;DHT22;9662;53.612;9.914;2022-12-20T02:02:48;6.60;99.90
19058;DHT22;9662;53.612;9.914;2022-12-20T02:05:17;6.60;99.90
19058;DHT22;9662;53.612;9.914;2022-12-20T02:07:47;6.90;99.90
19058;DHT22;9662;53.612;9.914;2022-12-20T02:10:16;6.70;99.90
19058;DHT22;9662;53.612;9.914;2022-12-20T02:12:45;6.60;99.90
19058;DHT22;9662;53.612;9.914;2022-12-20T02:15:26;6.80;99.90
19058;DHT22;9662;53.612;9.914;2022-12-20T02:18:05;6.80;99.90
19058;DHT22;9662;53.612;9.914;2022-12-20T02:23:57;6.70;99.90
19058;DHT22;9662;53.612;9.914;2022-12-20T02:30:04;7.00;99.90
19058;DHT22;9662;53.612;9.914;2022-12-20T02:32:36;6.90;99.90
19058;DHT22;9662;53.612;9.914;2022-12-20T02:35:07;6.90;99.90
19058;DHT22;9662;53.612;9.914;2022-12-20T02:37:34;6.90;99.90
19058;DHT22;9662;53.612;9.914;2022-12-20T02:40:02;6.90;99.90
19058;DHT22;9662;53.612;9.914;2022-12-20T02:42:31;7.00;99.90
19058;DHT22;9662;53.612;9.914;2022-12-20T02:45:04;7.30;99.90
19058;DHT22;9662;53.612;9.914;2022-12-20T02:47:45;7.10;99.90
19058;DHT22;9662;53.612;9.914;2022-12-20T02:50:16;7.10;99.90
19058;DHT22;9662;53.612;9.914;2022-12-20T02:52:43;7.10;99.90
19058;DHT22;9662;53.612;9.914;2022-12-20T02:55:10;7.00;99.90
19058;DHT22;9662;53.612;9.914;2022-12-20T02:57:42;7.10;99.90
19058;DHT22;9662;53.612;9.914;2022-12-20T03:00:14;7.20;99.90
19058;DHT22;9662;53.612;9.914;2022-12-20T03:02:43;7.20;99.90
19058;DHT22;9662;53.612;9.914;2022-12-20T03:05:28;7.20;99.90
19058;DHT22;9662;53.612;9.914;2022-12-20T03:07:55;7.20;99.90
19058;DHT22;9662;53.612;9.914;2022-12-20T03:10:22;7.20;99.90
19058;DHT22;9662;53.612;9.914;2022-12-20T03:12:49;7.30;99.90
19058;DHT22;9662;53.612;9.914;2022-12-20T03:15:17;7.30;99.90
19058;DHT22;9662;53.612;9.914;2022-12-20T03:17:44;7.40;99.90
19058;DHT22;9662;53.612;9.914;2022-12-20T03:20:11;7.30;99.90
19058;DHT22;9662;53.612;9.914;2022-12-20T03:22:38;7.30;99.90
19058;DHT22;9662;53.612;9.914;2022-12-20T03:25:05;7.60;99.90
19058;DHT22;9662;53.612;9.914;2022-12-20T03:27:32;7.40;99.90
19058;DHT22;9662;53.612;9.914;2022-12-20T03:29:59;7.40;99.90
19058;DHT22;9662;53.612;9.914;2022-12-20T03:32:27;7.40;99.90
19058;DHT22;9662;53.612;9.914;2022-12-20T03:34:54;7.60;99.90
19058;DHT22;9662;53.612;9.914;2022-12-20T03:37:21;7.40;99.90
19058;DHT22;9662;53.612;9.914;2022-12-20T03:39:48;7.40;99.90
19058;DHT22;9662;53.612;9.914;2022-12-20T03:42:14;7.70;99.90
19058;DHT22;9662;53.612;9.914;2022-12-20T03:44:41;7.40;99.90
19058;DHT22;9662;53.612;9.914;2022-12-20T03:47:08;7.70;99.90
19058;DHT22;9662;53.612;9.914;2022-12-20T03:49:36;7.60;99.90
19058;DHT22;9662;53.612;9.914;2022-12-20T03:52:03;7.60;99.90
19058;DHT22;9662;53.612;9.914;2022-12-20T03:54:30;7.60;99.90
19058;DHT22;9662;53.612;9.914;2022-12-20T03:56:57;7.60;99.90
19058;DHT22;9662;53.612;9.914;2022-12-20T03:59:24;7.70;99.90
19058;DHT22;9662;53.612;9.914;2022-12-20T04:01:51;7.60;99.90
19058;DHT22;9662;53.612;9.914;2022-12-20T04:04:18;7.60;99.90
19058;DHT22;9662;53.612;9.914;2022-12-20T04:06:46;7.60;99.90
19058;DHT22;9662;53.612;9.914;2022-12-20T04:09:13;7.80;99.90
19058;DHT22;9662;53.612;9.914;2022-12-20T04:11:40;7.90;99.90
19058;DHT22;9662;53.612;9.914;2022-12-20T04:14:07;7.60;99.90
19058;DHT22;9662;53.612;9.914;2022-12-20T04:16:34;7.60;99.90
19058;DHT22;9662;53.612;9.914;2022-12-20T04:19:01;7.60;99.90
19058;DHT22;9662;53.612;9.914;2022-12-20T04:21:30;7.70;99.90
19058;DHT22;9662;53.612;9.914;2022-12-20T04:23:59;7.60;99.90
19058;DHT22;9662;53.612;9.914;2022-12-20T04:26:26;7.50;99.90
19058;DHT22;9662;53.612;9.914;2022-12-20T04:28:53;7.70;99.90
19058;DHT22;9662;53.612;9.914;2022-12-20T04:31:20;7.60;99.90
19058;DHT22;9662;53.612;9.914;2022-12-20T04:33:47;7.60;99.90
19058;DHT22;9662;53.612;9.914;2022-12-20T04:36:14;7.60;99.90
19058;DHT22;9662;53.612;9.914;2022-12-20T04:38:41;7.70;99.90
19058;DHT22;9662;53.612;9.914;2022-12-20T04:41:09;7.80;99.90
19058;DHT22;9662;53.612;9.914;2022-12-20T04:43:47;7.70;99.90
19058;DHT22;9662;53.612;9.914;2022-12-20T04:46:14;7.80;99.90
19058;DHT22;9662;53.612;9.914;2022-12-20T04:48:41;7.70;99.90
19058;DHT22;9662;53.612;9.914;2022-12-20T04:51:07;8.00;99.90
19058;DHT22;9662;53.612;9.914;2022-12-20T04:53:34;7.60;99.90
19058;DHT22;9662;53.612;9.914;2022-12-20T04:56:15;7.60;99.90
19058;DHT22;9662;53.612;9.914;2022-12-20T04:58:42;7.90;99.90
19058;DHT22;9662;53.612;9.914;2022-12-20T05:01:09;7.80;99.90
19058;DHT22;9662;53.612;9.914;2022-12-20T05:03:36;7.80;99.90
19058;DHT22;9662;53.612;9.914;2022-12-20T05:06:03;7.70;99.90
19058;DHT22;9662;53.612;9.914;2022-12-20T05:08:31;7.60;99.90
19058;DHT22;9662;53.612;9.914;2022-12-20T05:10:58;7.60;99.90
19058;DHT22;9662;53.612;9.914;2022-12-20T05:13:26;7.50;99.90
19058;DHT22;9662;53.612;9.914;2022-12-20T05:15:54;7.50;99.90
19058;DHT22;9662;53.612;9.914;2022-12-20T05:18:22;7.70;99.90
19058;DHT22;9662;53.612;9.914;2022-12-20T05:20:50;7.60;99.90
19058;DHT22;9662;53.612;9.914;2022-12-20T05:23:37;7.60;99.90
19058;DHT22;9662;53.612;9.914;2022-12-20T05:26:21;7.60;99.90
19058;DHT22;9662;53.612;9.914;2022-12-20T05:28:50;7.50;99.90
19058;DHT22;9662;53.612;9.914;2022-12-20T05:31:17;7.50;99.90
19058;DHT22;9662;53.612;9.914;2022-12-20T05:33:44;7.50;99.90
19058;DHT22;9662;53.612;9.914;2022-12-20T05:36:11;7.80;99.90
19058;DHT22;9662;53.612;9.914;2022-12-20T05:38:38;7.60;99.90
19058;DHT22;9662;53.612;9.914;2022-12-20T05:41:05;7.60;99.90
19058;DHT22;9662;53.612;9.914;2022-12-20T05:43:33;7.60;99.90
19058;DHT22;9662;53.612;9.914;2022-12-20T05:46:01;8.00;99.90
19058;DHT22;9662;53.612;9.914;2022-12-20T05:48:27;7.60;99.90
19058;DHT22;9662;53.612;9.914;2022-12-20T05:50:54;7.70;99.90
19058;DHT22;9662;53.612;9.914;2022-12-20T05:53:21;7.60;99.90
19058;DHT22;9662;53.612;9.914;2022-12-20T05:55:50;7.70;99.90
19058;DHT22;9662;53.612;9.914;2022-12-20T05:58:17;7.70;99.90
19058;DHT22;9662;53.612;9.914;2022-12-20T06:00:44;7.60;99.90
19058;DHT22;9662;53.612;9.914;2022-12-20T06:03:13;7.80;99.90
19058;DHT22;9662;53.612;9.914;2022-12-20T06:05:41;7.80;99.90
19058;DHT22;9662;53.612;9.914;2022-12-20T06:08:09;7.50;99.90
19058;DHT22;9662;53.612;9.914;2022-12-20T06:10:36;7.60;99.90
19058;DHT22;9662;53.612;9.914;2022-12-20T06:13:05;7.70;99.90
19058;DHT22;9662;53.612;9.914;2022-12-20T06:15:31;7.60;99.90
19058;DHT22;9662;53.612;9.914;2022-12-20T06:17:58;7.70;99.90
19058;DHT22;9662;53.612;9.914;2022-12-20T06:20:27;7.70;99.90
19058;DHT22;9662;53.612;9.914;2022-12-20T06:22:54;7.70;99.90
19058;DHT22;9662;53.612;9.914;2022-12-20T06:25:20;7.70;99.90
19058;DHT22;9662;53.612;9.914;2022-12-20T06:27:47;7.70;99.90
19058;DHT22;9662;53.612;9.914;2022-12-20T06:30:14;8.20;99.90
19058;DHT22;9662;53.612;9.914;2022-12-20T06:32:41;7.80;99.90
19058;DHT22;9662;53.612;9.914;2022-12-20T06:35:08;7.80;99.90
19058;DHT22;9662;53.612;9.914;2022-12-20T06:37:36;7.80;99.90
19058;DHT22;9662;53.612;9.914;2022-12-20T06:40:06;7.90;99.90
19058;DHT22;9662;53.612;9.914;2022-12-20T06:42:33;8.00;99.90
19058;DHT22;9662;53.612;9.914;2022-12-20T06:44:59;8.60;99.90
19058;DHT22;9662;53.612;9.914;2022-12-20T06:47:26;8.50;99.90
19058;DHT22;9662;53.612;9.914;2022-12-20T06:49:53;8.00;99.90
19058;DHT22;9662;53.612;9.914;2022-12-20T06:52:20;8.00;99.90
19058;DHT22;9662;53.612;9.914;2022-12-20T06:54:48;8.00;99.90
19058;DHT22;9662;53.612;9.914;2022-12-20T06:57:15;8.00;99.90
19058;DHT22;9662;53.612;9.914;2022-12-20T06:59:41;8.00;99.90
19058;DHT22;9662;53.612;9.914;2022-12-20T07:02:09;8.00;99.90
19058;DHT22;9662;53.612;9.914;2022-12-20T07:04:36;8.10;99.90
19058;DHT22;9662;53.612;9.914;2022-12-20T07:07:04;8.00;99.90
19058;DHT22;9662;53.612;9.914;2022-12-20T07:09:31;8.30;99.90
19058;DHT22;9662;53.612;9.914;2022-12-20T07:11:59;8.20;99.90
19058;DHT22;9662;53.612;9.914;2022-12-20T07:14:26;8.20;99.90
19058;DHT22;9662;53.612;9.914;2022-12-20T07:16:53;8.20;99.90
19058;DHT22;9662;53.612;9.914;2022-12-20T07:19:20;8.30;99.90
19058;DHT22;9662;53.612;9.914;2022-12-20T07:21:47;8.20;99.90
19058;DHT22;9662;53.612;9.914;2022-12-20T07:24:13;8.20;99.90
19058;DHT22;9662;53.612;9.914;2022-12-20T07:26:42;8.20;99.90
19058;DHT22;9662;53.612;9.914;2022-12-20T07:29:10;8.30;99.90
19058;DHT22;9662;53.612;9.914;2022-12-20T07:31:37;8.30;99.90
19058;DHT22;9662;53.612;9.914;2022-12-20T07:34:04;8.30;99.90
19058;DHT22;9662;53.612;9.914;2022-12-20T07:36:31;8.20;99.90
19058;DHT22;9662;53.612;9.914;2022-12-20T07:38:58;8.20;99.90
19058;DHT22;9662;53.612;9.914;2022-12-20T07:41:25;8.70;99.90
19058;DHT22;9662;53.612;9.914;2022-12-20T07:43:51;8.20;99.90
19058;DHT22;9662;53.612;9.914;2022-12-20T07:46:19;8.10;99.90
19058;DHT22;9662;53.612;9.914;2022-12-20T07:48:46;8.10;99.90
19058;DHT22;9662;53.612;9.914;2022-12-20T07:51:16;8.10;99.90
19058;DHT22;9662;53.612;9.914;2022-12-20T07:53:49;8.20;99.90
19058;DHT22;9662;53.612;9.914;2022-12-20T07:56:18;8.20;99.90
19058;DHT22;9662;53.612;9.914;2022-12-20T07:58:46;8.20;99.90
19058;DHT22;9662;53.612;9.914;2022-12-20T08:01:14;8.20;99.90
19058;DHT22;9662;53.612;9.914;2022-12-20T08:03:45;8.20;99.90
19058;DHT22;9662;53.612;9.914;2022-12-20T08:06:14;8.30;99.90
19058;DHT22;9662;53.612;9.914;2022-12-20T08:08:44;8.30;99.90
19058;DHT22;9662;53.612;9.914;2022-12-20T08:11:12;8.30;99.90
19058;DHT22;9662;53.612;9.914;2022-12-20T08:13:39;8.20;99.90
19058;DHT22;9662;53.612;9.914;2022-12-20T08:16:07;8.30;99.90
19058;DHT22;9662;53.612;9.914;2022-12-20T08:18:33;8.30;99.90
19058;DHT22;9662;53.612;9.914;2022-12-20T08:21:02;8.30;99.90
19058;DHT22;9662;53.612;9.914;2022-12-20T08:23:28;8.40;99.90
19058;DHT22;9662;53.612;9.914;2022-12-20T08:25:55;8.40;99.90
19058;DHT22;9662;53.612;9.914;2022-12-20T08:28:22;8.60;99.90
19058;DHT22;9662;53.612;9.914;2022-12-20T08:30:49;8.50;99.90
19058;DHT22;9662;53.612;9.914;2022-12-20T08:33:16;8.50;99.90
19058;DHT22;9662;53.612;9.914;2022-12-20T08:35:44;8.60;99.90
